createdAt,value
2022-08-23T00:00:52.490Z,99928.23
2022-08-23T00:01:58.013Z,99929.92
2022-08-23T00:03:04.580Z,99933.39
2022-08-23T00:04:13.550Z,99930.95
2022-08-23T00:05:21.873Z,99932.93
2022-08-23T00:06:25.609Z,99922.09
2022-08-23T00:07:36.333Z,99929.76
2022-08-23T00:08:39.428Z,99929.16
2022-08-23T00:09:46.114Z,99932.97
2022-08-23T00:10:56.403Z,99933.81
2022-08-23T00:12:20.023Z,99929.23
2022-08-23T00:13:24.340Z,99930.64
2022-08-23T00:14:33.753Z,99941.67
2022-08-23T00:15:39.185Z,99932.70
2022-08-23T00:16:44.010Z,99933.47
2022-08-23T00:17:48.194Z,99932.89
2022-08-23T00:18:52.436Z,99924.77
2022-08-23T00:19:56.200Z,99928.77
2022-08-23T00:20:59.852Z,99932.32
2022-08-23T00:22:03.818Z,99931.55
2022-08-23T00:23:08.592Z,99935.30
2022-08-23T00:24:14.899Z,99935.88
2022-08-23T00:25:19.262Z,99932.52
2022-08-23T00:26:27.457Z,99926.90
2022-08-23T00:28:45.364Z,99929.69
2022-08-23T00:29:52.111Z,99936.17
2022-08-23T00:30:58.467Z,99932.74
2022-08-23T00:32:12.391Z,99935.27
2022-08-23T00:33:16.380Z,99934.42
2022-08-23T00:34:21.592Z,99937.20
2022-08-23T00:35:26.814Z,99938.31
2022-08-23T00:36:31.027Z,99942.82
2022-08-23T00:37:34.790Z,99939.37
2022-08-23T00:38:37.641Z,99933.95
2022-08-23T00:39:45.580Z,99939.98
2022-08-23T00:40:53.277Z,99935.21
2022-08-23T00:43:34.020Z,99934.65
2022-08-23T00:44:57.999Z,99944.31
2022-08-23T00:46:24.235Z,99941.59
2022-08-23T00:47:40.628Z,99940.11
2022-08-23T00:48:44.825Z,99937.20
2022-08-23T00:49:55.229Z,99946.75
2022-08-23T00:52:43.215Z,99951.22
2022-08-23T00:53:53.586Z,99955.27
2022-08-23T00:55:00.735Z,99952.03
2022-08-23T00:56:07.600Z,99954.75
2022-08-23T00:57:14.854Z,99952.88
2022-08-23T00:58:21.525Z,99956.42
2022-08-23T00:59:25.827Z,99960.44
2022-08-23T01:00:35.812Z,99956.29
2022-08-23T01:01:39.681Z,99966.67
2022-08-23T01:02:44.522Z,99959.38
2022-08-23T01:04:03.044Z,99965.64
2022-08-23T01:05:01.687Z,99963.72
2022-08-23T01:06:18.295Z,99965.02
2022-08-23T01:07:34.855Z,99958.34
2022-08-23T01:08:41.061Z,99969.33
2022-08-23T01:09:50.714Z,99972.41
2022-08-23T01:10:58.360Z,99965.96
2022-08-23T01:12:08.492Z,99957.97
2022-08-23T01:14:53.684Z,99967.31
2022-08-23T01:17:27.743Z,99960.86
2022-08-23T01:18:35.920Z,99961.80
2022-08-23T01:19:52.578Z,99961.09
2022-08-23T01:21:10.545Z,99960.21
2022-08-23T01:22:30.715Z,99965.25
2022-08-23T01:23:59.219Z,99966.66
2022-08-23T01:25:08.309Z,99966.34
2022-08-23T01:26:21.928Z,99964.80
2022-08-23T01:27:23.068Z,99960.59
2022-08-23T01:28:27.728Z,99970.02
2022-08-23T01:29:31.790Z,99962.64
2022-08-23T01:30:38.052Z,99955.67
2022-08-23T01:31:44.627Z,99960.16
2022-08-23T01:32:58.888Z,99959.97
2022-08-23T01:34:06.981Z,99953.44
2022-08-23T01:35:11.767Z,99958.76
2022-08-23T01:36:17.563Z,99962.98
2022-08-23T01:37:22.574Z,99964.67
2022-08-23T01:38:27.813Z,99964.39
2022-08-23T01:39:33.827Z,99967.38
2022-08-23T01:40:40.462Z,99967.75
2022-08-23T01:41:47.518Z,99957.95
2022-08-23T01:44:04.769Z,99958.48
2022-08-23T01:45:14.922Z,99964.39
2022-08-23T01:46:21.630Z,99964.27
2022-08-23T01:47:25.799Z,99969.78
2022-08-23T01:48:30.869Z,99964.08
2022-08-23T01:49:36.817Z,99970.98
2022-08-23T01:50:41.115Z,99976.03
2022-08-23T01:51:46.465Z,99974.27
2022-08-23T01:52:49.211Z,99974.27
2022-08-23T01:53:58.662Z,99972.48
2022-08-23T01:55:07.514Z,99974.35
2022-08-23T01:56:14.659Z,99978.45
2022-08-23T01:57:19.949Z,99981.17
2022-08-23T01:58:23.278Z,99977.53
2022-08-23T01:59:28.052Z,99971.83
2022-08-23T02:00:37.949Z,99975.06
2022-08-23T02:01:45.815Z,99975.48
2022-08-23T02:02:56.215Z,99979.77
2022-08-23T02:04:05.195Z,99983.13
2022-08-23T02:05:06.364Z,99980.05
2022-08-23T02:06:14.633Z,99981.92
2022-08-23T02:07:20.457Z,99982.48
2022-08-23T02:08:42.712Z,99983.16
2022-08-23T02:09:48.530Z,99985.48
2022-08-23T02:10:54.183Z,99980.23
2022-08-23T02:11:58.267Z,99981.66
2022-08-23T02:13:02.976Z,99983.63
2022-08-23T02:14:09.495Z,99979.05
2022-08-23T02:15:18.568Z,99979.30
2022-08-23T02:16:37.228Z,99986.21
2022-08-23T02:17:41.223Z,99987.61
2022-08-23T02:18:45.042Z,99985.93
2022-08-23T02:19:49.019Z,99979.89
2022-08-23T02:20:53.472Z,99989.67
2022-08-23T02:21:59.622Z,99983.01
2022-08-23T02:23:04.723Z,99988.08
2022-08-23T02:25:31.905Z,99987.89
2022-08-23T02:26:42.593Z,99988.20
2022-08-23T02:27:48.172Z,99989.12
2022-08-23T02:28:56.384Z,99989.41
2022-08-23T02:30:02.200Z,99991.83
2022-08-23T02:31:05.829Z,99992.20
2022-08-23T02:32:09.631Z,99984.45
2022-08-23T02:33:13.881Z,99986.33
2022-08-23T02:34:19.377Z,99993.21
2022-08-23T02:35:24.867Z,99991.34
2022-08-23T02:36:29.478Z,99992.41
2022-08-23T02:37:35.492Z,99995.30
2022-08-23T02:38:40.819Z,99985.39
2022-08-23T02:39:45.910Z,99985.93
2022-08-23T02:40:52.934Z,99984.72
2022-08-23T02:41:56.891Z,99984.91
2022-08-23T02:43:03.845Z,99988.27
2022-08-23T02:44:08.053Z,99989.41
2022-08-23T02:45:16.480Z,99986.15
2022-08-23T02:46:22.592Z,99986.15
2022-08-23T02:47:30.691Z,99990.70
2022-08-23T02:48:53.579Z,99986.97
2022-08-23T02:50:01.209Z,99987.81
2022-08-23T02:51:09.152Z,99987.26
2022-08-23T02:52:14.598Z,99992.02
2022-08-23T02:53:20.869Z,99990.34
2022-08-23T02:54:24.818Z,99998.91
2022-08-23T02:55:28.595Z,99993.97
2022-08-23T02:56:37.352Z,99990.34
2022-08-23T02:58:54.549Z,99994.72
2022-08-23T02:59:59.993Z,99999.75
2022-08-23T03:01:05.320Z,100002.45
2022-08-23T03:02:09.124Z,100008.16
2022-08-23T03:03:14.976Z,100011.05
2022-08-23T03:04:17.604Z,99999.56
2022-08-23T03:05:22.894Z,100003.77
2022-08-23T03:06:28.120Z,100007.31
2022-08-23T03:07:32.070Z,100009.73
2022-08-23T03:08:39.520Z,100011.70
2022-08-23T03:09:46.120Z,100012.91
2022-08-23T03:10:53.305Z,100011.41
2022-08-23T03:11:57.203Z,100010.38
2022-08-23T03:13:03.147Z,100006.29
2022-08-23T03:14:06.728Z,100009.44
2022-08-23T03:15:13.081Z,100002.45
2022-08-23T03:16:18.787Z,100012.07
2022-08-23T03:17:24.896Z,100008.45
2022-08-23T03:18:45.656Z,100013.48
2022-08-23T03:19:50.921Z,100008.45
2022-08-23T03:22:10.559Z,100009.10
2022-08-23T03:23:14.319Z,100016.67
2022-08-23T03:24:17.592Z,100012.83
2022-08-23T03:25:21.192Z,100010.59
2022-08-23T03:27:44.895Z,100020.77
2022-08-23T03:28:46.714Z,100020.69
2022-08-23T03:29:50.039Z,100018.42
2022-08-23T03:30:55.785Z,100029.55
2022-08-23T03:32:00.408Z,100029.55
2022-08-23T03:33:07.576Z,100017.31
2022-08-23T03:34:11.848Z,100030.67
2022-08-23T03:35:15.470Z,100030.73
2022-08-23T03:36:28.329Z,100021.52
2022-08-23T03:37:30.240Z,100035.41
2022-08-23T03:38:35.064Z,100032.14
2022-08-23T03:39:40.116Z,100027.09
2022-08-23T03:40:44.324Z,100038.96
2022-08-23T03:41:48.332Z,100037.56
2022-08-23T03:42:55.593Z,100034.08
2022-08-23T03:44:00.460Z,100044.37
2022-08-23T03:45:06.275Z,100034.82
2022-08-23T03:46:18.434Z,100041.52
2022-08-23T03:47:26.221Z,100039.55
2022-08-23T03:48:32.196Z,100042.63
2022-08-23T03:49:37.304Z,100039.08
2022-08-23T03:50:43.108Z,100044.88
2022-08-23T03:51:47.449Z,100040.75
2022-08-23T03:52:52.206Z,100045.33
2022-08-23T03:53:56.825Z,100041.67
2022-08-23T03:55:00.370Z,100049.81
2022-08-23T03:56:05.507Z,100051.35
2022-08-23T03:57:10.153Z,100054.72
2022-08-23T03:58:18.368Z,100045.09
2022-08-23T03:59:23.118Z,100055.18
2022-08-23T04:00:27.710Z,100052.66
2022-08-23T04:01:32.279Z,100048.72
2022-08-23T04:02:36.304Z,100065.84
2022-08-23T04:03:43.183Z,100062.47
2022-08-23T04:04:48.118Z,100061.22
2022-08-23T04:06:03.847Z,100062.98
2022-08-23T04:07:08.445Z,100058.25
2022-08-23T04:08:14.827Z,100055.61
2022-08-23T04:09:23.083Z,100069.25
2022-08-23T04:10:31.966Z,100066.20
2022-08-23T04:11:36.771Z,100066.97
2022-08-23T04:12:48.016Z,100062.98
2022-08-23T04:13:52.769Z,100069.78
2022-08-23T04:14:56.163Z,100071.31
2022-08-23T04:16:01.685Z,100073.83
2022-08-23T04:17:06.837Z,100072.25
2022-08-23T04:18:12.599Z,100078.20
2022-08-23T04:19:18.546Z,100082.44
2022-08-23T04:20:24.798Z,100074.26
2022-08-23T04:21:31.609Z,100075.91
2022-08-23T04:22:35.539Z,100075.41
2022-08-23T04:23:43.389Z,100081.14
2022-08-23T04:24:49.201Z,100078.63
2022-08-23T04:25:58.416Z,100077.59
2022-08-23T04:27:03.089Z,100084.36
2022-08-23T04:28:08.645Z,100087.61
2022-08-23T04:29:28.519Z,100084.98
2022-08-23T04:30:23.562Z,100089.34
2022-08-23T04:31:28.948Z,100087.11
2022-08-23T04:58:13.905Z,100118.52
2022-08-23T04:59:20.173Z,100111.73
2022-08-23T05:00:27.966Z,100110.33
2022-08-23T05:01:31.429Z,100118.35
2022-08-23T05:28:31.478Z,100136.84
2022-08-23T05:29:36.662Z,100138.47
2022-08-23T05:30:40.628Z,100141.20
2022-08-23T05:31:47.180Z,100141.55
2022-08-23T05:32:54.692Z,100142.34
2022-08-23T05:34:00.828Z,100140.45
2022-08-23T05:35:19.983Z,100142.52
2022-08-23T05:36:23.844Z,100148.91
2022-08-23T05:37:28.499Z,100151.26
2022-08-23T05:38:35.545Z,100150.37
2022-08-23T05:39:40.960Z,100151.19
2022-08-23T05:40:59.899Z,100153.56
2022-08-23T05:42:05.708Z,100157.54
2022-08-23T05:43:09.823Z,100159.43
2022-08-23T05:44:13.974Z,100154.97
2022-08-23T05:45:21.927Z,100158.25
2022-08-23T05:46:26.586Z,100160.52
2022-08-23T05:47:49.841Z,100163.27
2022-08-23T05:48:55.683Z,100159.03
2022-08-23T05:50:00.679Z,100157.93
2022-08-23T05:51:17.829Z,100157.64
2022-08-23T05:52:21.852Z,100159.13
2022-08-23T05:53:32.809Z,100160.62
2022-08-23T05:54:36.916Z,100160.30
2022-08-23T05:56:02.700Z,100168.39
2022-08-23T05:57:06.516Z,100169.52
2022-08-23T05:58:09.188Z,100171.70
2022-08-23T05:59:15.308Z,100167.22
2022-08-23T06:00:19.465Z,100166.27
2022-08-23T06:01:22.967Z,100172.56
2022-08-23T06:02:29.782Z,100170.50
2022-08-23T06:03:36.735Z,100175.23
2022-08-23T06:04:43.179Z,100178.80
2022-08-23T06:05:46.839Z,100171.39
2022-08-23T06:06:56.125Z,100169.98
2022-08-23T06:08:02.463Z,100171.78
2022-08-23T06:09:08.368Z,100174.17
2022-08-23T06:10:16.307Z,100172.50
2022-08-23T06:11:24.357Z,100181.62
2022-08-23T06:12:32.369Z,100179.09
2022-08-23T06:13:44.779Z,100177.69
2022-08-23T06:16:03.136Z,100177.55
2022-08-23T06:17:07.251Z,100191.92
2022-08-23T06:18:14.989Z,100185.45
2022-08-23T06:19:19.620Z,100188.80
2022-08-23T06:20:31.453Z,100194.96
2022-08-23T06:21:41.989Z,100196.17
2022-08-23T06:23:57.733Z,100195.19
2022-08-23T06:25:02.792Z,100196.41
2022-08-23T06:26:20.401Z,100199.22
2022-08-23T06:27:26.984Z,100213.86
2022-08-23T06:28:36.057Z,100203.77
2022-08-23T06:29:40.965Z,100211.90
2022-08-23T06:32:15.868Z,100218.55
2022-08-23T06:33:23.116Z,100218.81
2022-08-23T06:34:37.325Z,100217.69
2022-08-23T06:36:18.280Z,100210.25
2022-08-23T06:37:33.684Z,100219.05
2022-08-23T06:38:49.941Z,100224.18
2022-08-23T06:40:01.265Z,100227.09
2022-08-23T06:42:38.269Z,100236.78
2022-08-23T06:43:37.266Z,100240.37
2022-08-23T06:44:43.357Z,100241.80
2022-08-23T06:45:54.922Z,100243.70
2022-08-23T06:46:58.980Z,100251.92
2022-08-23T06:48:05.384Z,100253.14
2022-08-23T06:49:08.547Z,100245.72
2022-08-23T06:50:24.214Z,100249.11
2022-08-23T06:51:44.634Z,100254.05
2022-08-23T06:53:01.198Z,100257.71
2022-08-23T06:54:17.535Z,100258.07
2022-08-23T06:55:33.136Z,100264.60
2022-08-23T06:56:43.209Z,100264.64
2022-08-23T06:57:49.895Z,100276.47
2022-08-23T07:00:22.339Z,100286.58
2022-08-23T07:01:45.747Z,100281.27
2022-08-23T07:02:52.899Z,100285.97
2022-08-23T07:04:21.608Z,100285.52
2022-08-23T07:05:38.844Z,100290.74
2022-08-23T07:06:49.197Z,100293.14
2022-08-23T07:07:56.868Z,100302.63
2022-08-23T07:09:02.026Z,100299.70
2022-08-23T07:10:09.256Z,100298.06
2022-08-23T07:11:12.898Z,100304.45
2022-08-23T07:12:17.723Z,100298.97
2022-08-23T07:13:22.392Z,100313.22
2022-08-23T07:14:30.954Z,100311.80
2022-08-23T07:15:33.879Z,100304.64
2022-08-23T07:16:43.836Z,100309.08
2022-08-23T07:17:48.335Z,100310.91
2022-08-23T07:18:56.337Z,100328.10
2022-08-23T07:20:01.309Z,100320.88
2022-08-23T07:21:08.439Z,100321.66
2022-08-23T07:23:31.352Z,100326.18
2022-08-23T07:24:35.015Z,100325.06
2022-08-23T07:25:40.409Z,100322.56
2022-08-23T07:26:48.199Z,100326.97
2022-08-23T07:27:54.769Z,100321.33
2022-08-23T07:29:00.293Z,100322.09
2022-08-23T07:30:06.385Z,100323.68
2022-08-23T07:31:18.228Z,100326.91
2022-08-23T07:32:25.762Z,100327.07
2022-08-23T07:33:33.254Z,100328.23
2022-08-23T07:34:46.205Z,100329.16
2022-08-23T07:35:52.255Z,100337.03
2022-08-23T07:36:58.497Z,100339.41
2022-08-23T07:38:05.505Z,100339.14
2022-08-23T07:39:12.928Z,100338.84
2022-08-23T07:40:20.643Z,100348.98
2022-08-23T07:41:32.905Z,100342.87
2022-08-23T07:42:37.277Z,100352.37
2022-08-23T07:43:42.620Z,100348.84
2022-08-23T07:44:51.638Z,100337.48
2022-08-23T07:45:56.726Z,100338.34
2022-08-23T07:47:01.792Z,100345.84
2022-08-23T07:48:10.417Z,100355.83
2022-08-23T07:49:16.837Z,100335.73
2022-08-23T07:50:25.150Z,100349.14
2022-08-23T07:51:35.830Z,100352.64
2022-08-23T07:52:39.468Z,100354.64
2022-08-23T07:53:46.022Z,100353.53
2022-08-23T07:54:50.708Z,100356.31
2022-08-23T07:55:59.598Z,100343.60
2022-08-23T07:57:12.918Z,100343.70
2022-08-23T07:58:26.348Z,100336.94
2022-08-23T07:59:35.112Z,100344.59
2022-08-23T08:00:45.759Z,100343.19
2022-08-23T08:02:13.021Z,100336.97
2022-08-23T08:03:19.687Z,100335.91
2022-08-23T08:04:34.530Z,100352.09
2022-08-23T08:05:41.538Z,100341.46
2022-08-23T08:06:59.802Z,100340.66
2022-08-23T08:07:56.876Z,100344.50
2022-08-23T08:09:06.157Z,100341.30
2022-08-23T08:10:12.376Z,100335.53
2022-08-23T08:11:20.050Z,100342.17
2022-08-23T08:12:23.192Z,100340.41
2022-08-23T08:13:31.870Z,100328.32
2022-08-23T08:14:38.333Z,100331.77
2022-08-23T08:15:45.210Z,100331.64
2022-08-23T08:16:53.001Z,100329.48
2022-08-23T08:17:57.836Z,100329.41
2022-08-23T08:19:08.599Z,100335.78
2022-08-23T08:20:33.343Z,100338.08
2022-08-23T08:21:42.647Z,100339.45
2022-08-23T08:22:51.263Z,100338.65
2022-08-23T08:24:17.410Z,100347.02
2022-08-23T08:25:24.574Z,100358.48
2022-08-23T08:26:31.501Z,100353.62
2022-08-23T08:27:36.187Z,100348.49
2022-08-23T08:28:41.183Z,100331.04
2022-08-23T08:29:45.498Z,100336.80
2022-08-23T08:30:49.510Z,100338.13
2022-08-23T08:31:56.681Z,100341.54
2022-08-23T08:33:00.506Z,100338.70
2022-08-23T08:34:07.486Z,100341.34
2022-08-23T08:35:14.535Z,100332.14
2022-08-23T08:36:39.627Z,100328.41
2022-08-23T08:37:45.427Z,100338.11
2022-08-23T08:38:53.303Z,100343.22
2022-08-23T08:40:00.922Z,100338.97
2022-08-23T08:41:18.040Z,100338.11
2022-08-23T08:42:27.292Z,100334.42
2022-08-23T08:43:40.346Z,100329.84
2022-08-23T08:46:30.970Z,100327.34
2022-08-23T08:47:41.901Z,100329.53
2022-08-23T08:48:50.455Z,100331.05
2022-08-23T08:50:16.844Z,100325.79
2022-08-23T08:52:53.647Z,100335.56
2022-08-23T08:54:03.386Z,100333.41
2022-08-23T08:55:12.736Z,100327.94
2022-08-23T08:56:32.463Z,100348.66
2022-08-23T08:57:39.441Z,100335.23
2022-08-23T08:58:56.233Z,100334.87
2022-08-23T09:00:07.705Z,100340.27
2022-08-23T09:01:16.998Z,100337.16
2022-08-23T09:02:32.872Z,100328.70
2022-08-23T09:03:32.438Z,100335.94
2022-08-23T09:04:38.204Z,100335.10
2022-08-23T09:05:53.588Z,100331.42
2022-08-23T09:07:31.222Z,100342.19
2022-08-23T09:09:02.198Z,100339.75
2022-08-23T09:10:23.692Z,100339.99
2022-08-23T09:11:56.495Z,100342.27
2022-08-23T09:13:31.743Z,100340.19
2022-08-23T09:14:55.343Z,100342.06
2022-08-23T09:16:17.808Z,100340.23
2022-08-23T09:17:47.375Z,100339.27
2022-08-23T09:18:52.027Z,100341.46
2022-08-23T09:19:58.487Z,100338.56
2022-08-23T09:21:14.597Z,100334.41
2022-08-23T09:22:31.303Z,100338.44
2022-08-23T09:23:45.550Z,100332.50
2022-08-23T09:24:49.880Z,100336.23
2022-08-23T09:26:03.824Z,100335.11
2022-08-23T09:27:11.555Z,100342.74
2022-08-23T09:28:16.639Z,100339.69
2022-08-23T09:29:29.016Z,100335.07
2022-08-23T09:30:48.468Z,100337.72
2022-08-23T09:32:03.442Z,100353.08
2022-08-23T09:33:18.654Z,100340.37
2022-08-23T09:34:32.170Z,100355.58
2022-08-23T09:36:21.278Z,100344.47
2022-08-23T09:38:54.332Z,100346.16
2022-08-23T09:40:31.679Z,100345.41
2022-08-23T09:41:42.742Z,100351.47
2022-08-23T09:42:49.139Z,100344.63
2022-08-23T09:43:56.396Z,100348.89
2022-08-23T09:45:02.588Z,100352.75
2022-08-23T09:46:07.792Z,100350.16
2022-08-23T09:47:15.376Z,100353.98
2022-08-23T09:48:40.903Z,100352.41
2022-08-23T09:49:50.167Z,100342.25
2022-08-23T09:50:58.962Z,100337.33
2022-08-23T09:52:13.332Z,100347.41
2022-08-23T09:53:29.951Z,100347.34
2022-08-23T09:54:47.383Z,100344.94
2022-08-23T09:57:14.468Z,100340.95
2022-08-23T09:58:26.681Z,100339.02
2022-08-23T09:59:48.836Z,100343.98
2022-08-23T10:01:16.809Z,100352.20
2022-08-23T10:02:33.815Z,100348.41
2022-08-23T10:03:47.640Z,100348.89
2022-08-23T10:04:59.596Z,100353.27
2022-08-23T10:06:04.963Z,100343.48
2022-08-23T10:07:28.651Z,100342.70
2022-08-23T10:08:43.019Z,100343.23
2022-08-23T10:09:43.432Z,100349.83
2022-08-23T10:10:55.538Z,100349.30
2022-08-23T10:12:02.924Z,100337.92
2022-08-23T10:13:08.533Z,100336.22
2022-08-23T10:14:20.240Z,100347.84
2022-08-23T10:16:45.465Z,100353.76
2022-08-23T10:18:10.488Z,100356.98
2022-08-23T10:19:24.193Z,100357.25
2022-08-23T10:20:38.504Z,100355.41
2022-08-23T10:22:04.526Z,100364.86
2022-08-23T10:23:22.088Z,100363.19
2022-08-23T10:24:37.274Z,100354.12
2022-08-23T10:25:47.114Z,100361.02
2022-08-23T10:27:31.869Z,100359.64
2022-08-23T10:29:03.151Z,100360.78
2022-08-23T10:30:10.732Z,100356.34
2022-08-23T10:31:28.852Z,100360.83
2022-08-23T10:32:45.946Z,100360.80
2022-08-23T10:33:59.132Z,100361.78
2022-08-23T10:35:22.340Z,100347.65
2022-08-23T10:36:33.102Z,100356.50
2022-08-23T10:38:16.664Z,100359.63
2022-08-23T10:39:28.523Z,100358.48
2022-08-23T10:40:36.541Z,100362.84
2022-08-23T10:42:03.424Z,100377.81
2022-08-23T10:43:17.757Z,100361.60
2022-08-23T10:44:34.976Z,100371.66
2022-08-23T10:45:58.327Z,100360.05
2022-08-23T10:47:12.973Z,100367.46
2022-08-23T10:48:25.207Z,100373.33
2022-08-23T10:49:32.798Z,100364.30
2022-08-23T10:50:54.640Z,100360.94
2022-08-23T10:51:57.694Z,100361.56
2022-08-23T10:53:15.727Z,100361.00
2022-08-23T10:54:26.472Z,100364.01
2022-08-23T10:55:47.521Z,100349.44
2022-08-23T10:56:52.597Z,100355.53
2022-08-23T10:57:57.429Z,100356.66
2022-08-23T10:59:18.219Z,100362.45
2022-08-23T11:00:26.644Z,100363.77
2022-08-23T11:01:37.809Z,100361.72
2022-08-23T11:02:51.297Z,100361.56
2022-08-23T11:04:09.674Z,100362.55
2022-08-23T11:05:33.264Z,100356.83
2022-08-23T11:06:49.124Z,100368.49
2022-08-23T11:08:06.149Z,100350.15
2022-08-23T11:09:25.907Z,100350.94
2022-08-23T11:10:42.097Z,100364.05
2022-08-23T11:12:11.147Z,100356.11
2022-08-23T11:13:21.684Z,100362.31
2022-08-23T11:14:41.869Z,100350.61
2022-08-23T11:16:09.770Z,100353.22
2022-08-23T11:17:31.231Z,100364.80
2022-08-23T11:18:44.679Z,100356.27
2022-08-23T11:19:54.107Z,100355.49
2022-08-23T11:21:10.455Z,100355.85
2022-08-23T11:22:23.319Z,100357.34
2022-08-23T11:23:59.882Z,100349.83
2022-08-23T11:26:35.145Z,100360.27
2022-08-23T11:27:41.757Z,100352.98
2022-08-23T11:28:47.722Z,100357.65
2022-08-23T11:29:52.753Z,100345.82
2022-08-23T11:31:22.461Z,100355.50
2022-08-23T11:32:30.097Z,100350.09
2022-08-23T11:33:48.265Z,100345.81
2022-08-23T11:34:59.712Z,100354.31
2022-08-23T11:37:27.085Z,100346.46
2022-08-23T11:38:52.912Z,100349.72
2022-08-23T11:40:01.858Z,100341.06
2022-08-23T11:41:24.290Z,100338.97
2022-08-23T11:42:45.513Z,100346.73
2022-08-23T11:43:52.710Z,100352.03
2022-08-23T11:44:58.374Z,100349.17
2022-08-23T11:46:30.396Z,100341.09
2022-08-23T11:47:44.434Z,100345.23
2022-08-23T11:49:12.009Z,100347.59
2022-08-23T11:52:01.984Z,100346.81
2022-08-23T11:53:10.191Z,100345.81
2022-08-23T11:54:27.764Z,100351.10
2022-08-23T11:55:37.948Z,100352.77
2022-08-23T11:56:56.358Z,100343.82
2022-08-23T11:58:25.659Z,100342.48
2022-08-23T11:59:45.458Z,100338.20
2022-08-23T12:01:10.306Z,100351.04
2022-08-23T12:02:44.103Z,100336.13
2022-08-23T12:04:06.463Z,100349.75
2022-08-23T12:05:24.509Z,100344.81
2022-08-23T12:06:50.666Z,100335.98
2022-08-23T12:08:02.361Z,100338.89
2022-08-23T12:09:14.030Z,100348.70
2022-08-23T12:10:24.617Z,100334.38
2022-08-23T12:11:31.777Z,100340.87
2022-08-23T12:12:39.364Z,100351.34
2022-08-23T12:13:58.842Z,100337.67
2022-08-23T12:16:24.547Z,100343.66
2022-08-23T12:17:29.882Z,100343.88
2022-08-23T12:18:38.314Z,100355.02
2022-08-23T12:19:50.716Z,100347.45
2022-08-23T12:21:02.759Z,100352.97
2022-08-23T12:22:11.519Z,100352.98
2022-08-23T12:23:18.509Z,100349.00
2022-08-23T12:24:47.019Z,100347.09
2022-08-23T12:26:01.858Z,100346.58
2022-08-23T12:27:11.331Z,100344.06
2022-08-23T12:28:24.864Z,100362.09
2022-08-23T12:29:44.527Z,100350.16
2022-08-23T12:30:55.362Z,100351.55
2022-08-23T12:32:15.680Z,100346.67
2022-08-23T12:33:29.007Z,100352.34
2022-08-23T12:34:42.048Z,100359.67
2022-08-23T12:35:55.596Z,100352.25
2022-08-23T12:37:10.693Z,100353.86
2022-08-23T12:38:33.070Z,100351.78
2022-08-23T12:39:41.680Z,100354.80
2022-08-23T12:40:48.512Z,100359.20
2022-08-23T12:42:00.489Z,100359.42
2022-08-23T12:43:17.437Z,100359.98
2022-08-23T12:44:21.497Z,100357.81
2022-08-23T12:45:26.563Z,100360.39
2022-08-23T12:46:40.386Z,100353.63
2022-08-23T12:47:47.797Z,100364.08
2022-08-23T12:48:51.543Z,100360.48
2022-08-23T12:50:12.573Z,100360.16
2022-08-23T12:51:17.273Z,100361.42
2022-08-23T12:52:25.257Z,100368.00
2022-08-23T12:53:32.742Z,100368.00
2022-08-23T12:54:45.079Z,100363.33
2022-08-23T12:55:52.839Z,100373.76
2022-08-23T12:56:56.349Z,100368.24
2022-08-23T12:58:05.358Z,100367.76
2022-08-23T12:59:13.637Z,100358.47
2022-08-23T13:00:24.001Z,100367.41
2022-08-23T13:01:31.011Z,100379.91
2022-08-23T13:02:37.258Z,100369.33
2022-08-23T13:03:46.424Z,100365.84
2022-08-23T13:04:50.593Z,100376.27
2022-08-23T13:07:20.404Z,100372.83
2022-08-23T13:08:34.698Z,100376.02
2022-08-23T13:09:41.645Z,100368.83
2022-08-23T13:10:53.623Z,100373.59
2022-08-23T13:12:00.925Z,100370.92
2022-08-23T13:13:05.666Z,100374.50
2022-08-23T13:14:33.357Z,100372.40
2022-08-23T13:15:50.192Z,100368.64
2022-08-23T13:16:56.877Z,100374.48
2022-08-23T13:18:01.803Z,100370.42
2022-08-23T13:19:28.541Z,100374.28
2022-08-23T13:20:33.194Z,100371.15
2022-08-23T13:21:39.874Z,100369.42
2022-08-23T13:23:07.754Z,100369.75
2022-08-23T13:24:37.784Z,100376.66
2022-08-23T13:25:44.247Z,100368.00
2022-08-23T13:26:52.255Z,100362.99
2022-08-23T13:28:03.867Z,100376.42
2022-08-23T13:29:10.528Z,100374.41
2022-08-23T13:30:19.161Z,100377.73
2022-08-23T13:31:22.845Z,100388.12
2022-08-23T13:32:39.686Z,100376.77
2022-08-23T13:33:52.255Z,100371.02
2022-08-23T13:34:58.225Z,100369.39
2022-08-23T13:36:16.552Z,100376.48
2022-08-23T13:37:29.047Z,100381.16
2022-08-23T13:38:34.092Z,100359.63
2022-08-23T13:39:44.260Z,100368.94
2022-08-23T13:41:05.319Z,100372.73
2022-08-23T13:42:12.854Z,100374.45
2022-08-23T13:43:25.131Z,100373.94
2022-08-23T13:44:29.888Z,100368.43
2022-08-23T13:45:37.620Z,100360.39
2022-08-23T13:46:47.091Z,100365.30
2022-08-23T13:47:54.280Z,100372.45
2022-08-23T13:49:08.190Z,100370.17
2022-08-23T13:50:18.538Z,100360.25
2022-08-23T13:51:37.074Z,100370.06
2022-08-23T13:53:03.176Z,100375.16
2022-08-23T13:53:47.314Z,100367.83
2022-08-23T13:54:53.971Z,100365.13
2022-08-23T13:56:02.130Z,100375.38
2022-08-23T13:57:12.885Z,100364.55
2022-08-23T13:58:33.208Z,100367.25
2022-08-23T13:59:43.613Z,100356.53
2022-08-23T14:00:55.538Z,100363.80
2022-08-23T14:01:54.337Z,100354.84
2022-08-23T14:03:01.185Z,100353.88
2022-08-23T14:04:07.796Z,100361.91
2022-08-23T14:05:11.817Z,100360.50
2022-08-23T14:06:16.229Z,100360.38
2022-08-23T14:07:21.136Z,100362.96
2022-08-23T14:08:23.910Z,100361.12
2022-08-23T14:09:27.636Z,100360.04
2022-08-23T14:10:32.595Z,100352.44
2022-08-23T14:11:37.562Z,100357.08
2022-08-23T14:12:46.751Z,100364.17
2022-08-23T14:13:51.501Z,100358.03
2022-08-23T14:14:57.704Z,100357.62
2022-08-23T14:17:13.117Z,100355.89
2022-08-23T14:18:17.563Z,100354.23
2022-08-23T14:20:33.980Z,100346.55
2022-08-23T14:21:38.561Z,100346.97
2022-08-23T14:22:42.586Z,100358.14
2022-08-23T14:23:46.612Z,100353.11
2022-08-23T14:24:50.332Z,100352.82
2022-08-23T14:26:05.066Z,100346.28
2022-08-23T14:27:09.800Z,100346.27
2022-08-23T14:28:16.781Z,100353.63
2022-08-23T14:29:22.885Z,100349.70
2022-08-23T14:30:31.943Z,100356.65
2022-08-23T14:31:42.961Z,100352.81
2022-08-23T14:32:46.722Z,100352.39
2022-08-23T14:33:54.724Z,100344.88
2022-08-23T14:35:02.689Z,100348.71
2022-08-23T14:38:00.582Z,100354.22
2022-08-23T14:38:25.171Z,100352.63
2022-08-23T14:39:28.561Z,100345.87
2022-08-23T14:40:33.222Z,100348.55
2022-08-23T14:41:38.312Z,100348.63
2022-08-23T14:42:46.639Z,100348.05
2022-08-23T14:43:51.551Z,100348.38
2022-08-23T14:44:55.387Z,100346.59
2022-08-23T14:46:00.232Z,100348.65
2022-08-23T14:47:07.223Z,100354.11
2022-08-23T14:48:14.074Z,100347.12
2022-08-23T14:49:22.226Z,100343.13
2022-08-23T14:50:27.837Z,100336.94
2022-08-23T14:51:34.840Z,100348.97
2022-08-23T14:52:43.042Z,100344.21
2022-08-23T14:53:46.439Z,100337.72